Newbiggin-by-the-Sea, United Kingdom
Current Conditions -  °F | °C
As of 8:20 AM on Sunday 26 Oct 2014 (Local Time) from EGNT Reporting Station
Scattered Clouds Scattered Clouds  
Wind Chill: 13°   Ceiling: Unl
Heat Index: 13°   Visibility: 6mi
Dew Point:   Wind: 15mph
Humidity: 72%   Direction: 210°SSW
Pressure: 29.8"   Gusts: NA
Location:  55.19°N, 1.51°W
Report Text: EGNT 260720Z 21013KT 170V240 9999 SCT032 13/08 Q1009
Loading
Personal Weather Stations






























Interactive Weather Map
Tropical Storm Tracking
New forecast layout! Learn more

10-Day Weather Forecast

Advertisements
Track Severe Weather on mobile